首页
METAR-TAF:

METAR-TAF

机场 :

Capo Mele

Andora, 意大利

纬度: 43-57N, 经度: 008-10E, 海拔: 220米

当前天气观测

该预报发布于49分钟前的08:55 UTC
风速10节,风向东北
温度 24°C
湿度 74%
气压 1018 hPa
能见度10公里或以上
散云层高于1500英尺

METAR: LIMU 190855Z 04010KT 9999 SCT015 24/19 Q1018 RMK OVC SCT080 OVC200 QUK 2 QUL 1 E VIS MAR 15 KM VIS MIN 9999

时间: 11:44 (09:44 UTC)


TAF: 丢失

超过4000个机场的气象观测和天气预报(METAR&TAF报告)。

可查询的气象台以黄色和红色小点在地图上表示。

将鼠标移到小点上方,可查看气象台名称。

然后点击查看天气观测和预报。

如需切换地图:点击带黑十字的绿色按钮放大地图;点击带横线的绿色按钮缩小地图;或者点击绿色箭头查看邻近地区的地图。


METAR-TAF: